Игнатьево

Карта отелей и гостиниц, располагающихся рядом с аэропортом Игнатьево :

Игнатьево
Благовещенск
Амурская область 50° 25' 31.6812" N, 127° 24' 44.8812" E
Код аэродрома ИКАО
UHBB
Код аэродрома RU
УХББ
Координаты
N50.42547° E127.41247°
Превышение над уровнем моря
188
Основная полоса
18/36
Курс магнитный
180,4/000,4
Длина основной ВПП
2806
Ширина основной ВПП
45
Покрытие основной ВПП
Твёрдое (асфальт)
Освещение ВПП
Постоянное
Тип: 
Аэродром
Класс аэродрома: 
Международный
Принадлежность: 
ГА
Статус: 
Действующий
Сайт: 
http://www.amurair.ru/
E-mail аэродрома: 
bqs@amurair.ru
Страна: 
Россия
Регион: 
Амурская область
Город: 
Благовещенск
Дополнительная информация: 
Военный индекс: ЬХББ/XHBB. Оператор: ГУП Амурской области "Аэропорт Благовещенск". Международный аэропорт федерального значения. В декабре 2010 был введён в строй новый аэровокзал пропускной способностью 300 чел./час. Обустроено 44 МС.
Схемы аэропортов: 
Погода: 

Авиационная погода в Игнатьево

Регион: 
Погода METAR: 
UHBB 221800Z 30001MPS CAVOK M26/M28 Q1029 R36/820360 NOSIG RMK QFE754/1005
Время наблюдения
2022-01-22T18:00:00Z
Температура C
-26.0
Точка росы
-28.0
Направление ветра
300
Скорость ветра (узлы)
2
Метео видимость
6.21
Облачность
CAVOK
Нижняя граница облачности (футы)
Явления погоды
Условия полета
VFR
Аэропорт подробнее: 

Найти трансфер

С помощью этой формы Вы можете найти трансфер из аэропорта Игнатьево в город, аэропорт или вокзал:

Погода в аэропортах:

Авиационная погода в Усть-Каменогорске

Регион: 
Погода METAR: 
UASK 221800Z 00000MPS 0050 R30/M0200 FZFG BKN001 M26/M28 Q1031 NOSIG RMK QBB050 QFE747/0996
Время наблюдения
2022-01-22T18:00:00Z
Температура C
-26.0
Точка росы
-28.0
Направление ветра
0
Скорость ветра (узлы)
0
Метео видимость
0.03
Облачность
BKN
Нижняя граница облачности (футы)
100
Явления погоды
FZFG
Условия полета
LIFR
Аэропорт подробнее: 
BKN – значительная (рассеянная, разорванная) облачность;
FZFG - переохлаждённый туман;

Авиационная погода в Минске

Регион: 
Погода METAR: 
UMMS 221743Z 35008G12MPS 2800 -SHSN BLSN BKN015CB BKN041 M04/M05 Q1012 NOSIG
Время наблюдения
2022-01-22T17:43:00Z
Температура C
-4.0
Точка росы
-5.0
Направление ветра
350
Скорость ветра (узлы)
16
Метео видимость
1.74
Облачность
BKN
BKN
Нижняя граница облачности (футы)
1500
4100
Явления погоды
-SHSN BLSN
Условия полета
IFR
Аэропорт подробнее: 
BKN – значительная (рассеянная, разорванная) облачность;
-SHSN - слабый ливневой снег, BLSN – метель низовая или общая;

Авиационная погода в аэропорту Алыкель

Регион: 
Погода METAR: 
UOOO 221800Z 20013MPS 0300 0250S R19/0800N SN BLSN OVC008 M10/M11 Q1017 R19/451033 NOSIG RMK QFE746/0995
Время наблюдения
2022-01-22T18:00:00Z
Температура C
-10.0
Точка росы
-11.0
Направление ветра
200
Скорость ветра (узлы)
25
Метео видимость
0.19
Облачность
OVC
Нижняя граница облачности (футы)
800
Явления погоды
BLSN SN
Условия полета
LIFR
Аэропорт подробнее: 
OVC – сплошная облачность;
BLSN – метель низовая или общая;

Авиационная погода в Чебоксарах

Регион: 
Погода METAR: 
UWKS 221800Z 14004MPS 1100 R06/P2000N SN BKN006 M08/M09 Q1018 R06/490337 NOSIG RMK QFE748
Время наблюдения
2022-01-22T18:00:00Z
Температура C
-8.0
Точка росы
-9.0
Направление ветра
140
Скорость ветра (узлы)
8
Метео видимость
0.68
Облачность
BKN
Нижняя граница облачности (футы)
600
Явления погоды
SN
Условия полета
LIFR
Аэропорт подробнее: 
BKN – значительная (рассеянная, разорванная) облачность;
SN – снег;